sensor_id;sensor_type;location;lat;lon;timestamp;P1;durP1;ratioP1;P2;durP2;ratioP2
32734;SDS011;19112;51.076;3.706;2023-08-12T00:00:00;17.38;;;5.20;;
32734;SDS011;19112;51.076;3.706;2023-08-12T00:02:59;14.15;;;4.68;;
32734;SDS011;19112;51.076;3.706;2023-08-12T00:13:57;19.00;;;5.32;;
32734;SDS011;19112;51.076;3.706;2023-08-12T00:20:30;17.83;;;5.03;;
32734;SDS011;19112;51.076;3.706;2023-08-12T00:23:40;18.00;;;4.93;;
32734;SDS011;19112;51.076;3.706;2023-08-12T00:26:45;17.80;;;4.55;;
32734;SDS011;19112;51.076;3.706;2023-08-12T00:33:15;13.52;;;4.60;;
32734;SDS011;19112;51.076;3.706;2023-08-12T00:36:05;17.25;;;4.72;;
32734;SDS011;19112;51.076;3.706;2023-08-12T00:38:49;12.23;;;4.50;;
32734;SDS011;19112;51.076;3.706;2023-08-12T00:42:20;18.38;;;4.90;;
32734;SDS011;19112;51.076;3.706;2023-08-12T00:45:30;19.42;;;5.05;;
32734;SDS011;19112;51.076;3.706;2023-08-12T00:49:12;16.65;;;4.70;;
32734;SDS011;19112;51.076;3.706;2023-08-12T00:52:23;20.92;;;5.28;;
32734;SDS011;19112;51.076;3.706;2023-08-12T00:56:06;16.85;;;4.80;;
32734;SDS011;19112;51.076;3.706;2023-08-12T00:59:55;13.50;;;5.10;;
32734;SDS011;19112;51.076;3.706;2023-08-12T01:03:02;16.38;;;5.28;;
32734;SDS011;19112;51.076;3.706;2023-08-12T01:12:56;14.90;;;5.15;;
32734;SDS011;19112;51.076;3.706;2023-08-12T01:15:55;18.00;;;5.13;;
32734;SDS011;19112;51.076;3.706;2023-08-12T01:21:55;18.95;;;5.18;;
32734;SDS011;19112;51.076;3.706;2023-08-12T01:25:04;17.13;;;5.43;;
32734;SDS011;19112;51.076;3.706;2023-08-12T01:28:19;18.10;;;5.32;;
32734;SDS011;19112;51.076;3.706;2023-08-12T01:37:12;17.30;;;5.30;;
32734;SDS011;19112;51.076;3.706;2023-08-12T01:39:53;17.37;;;5.20;;
32734;SDS011;19112;51.076;3.706;2023-08-12T01:42:59;17.05;;;5.70;;
32734;SDS011;19112;51.076;3.706;2023-08-12T01:46:04;18.45;;;5.53;;
32734;SDS011;19112;51.076;3.706;2023-08-12T01:49:11;19.05;;;5.25;;
32734;SDS011;19112;51.076;3.706;2023-08-12T01:52:27;16.88;;;5.38;;
32734;SDS011;19112;51.076;3.706;2023-08-12T01:55:28;20.92;;;6.03;;
32734;SDS011;19112;51.076;3.706;2023-08-12T01:58:41;16.85;;;5.30;;
32734;SDS011;19112;51.076;3.706;2023-08-12T02:08:37;17.98;;;5.97;;
32734;SDS011;19112;51.076;3.706;2023-08-12T02:11:49;22.83;;;5.80;;
32734;SDS011;19112;51.076;3.706;2023-08-12T02:15:00;18.02;;;5.75;;
32734;SDS011;19112;51.076;3.706;2023-08-12T02:18:16;17.08;;;5.65;;
32734;SDS011;19112;51.076;3.706;2023-08-12T02:20:54;21.98;;;5.72;;
32734;SDS011;19112;51.076;3.706;2023-08-12T02:23:23;17.73;;;6.07;;
32734;SDS011;19112;51.076;3.706;2023-08-12T02:26:11;19.48;;;6.03;;
32734;SDS011;19112;51.076;3.706;2023-08-12T02:28:41;24.65;;;6.72;;
32734;SDS011;19112;51.076;3.706;2023-08-12T02:31:11;21.85;;;6.63;;
32734;SDS011;19112;51.076;3.706;2023-08-12T02:33:51;22.45;;;6.53;;
32734;SDS011;19112;51.076;3.706;2023-08-12T02:36:28;20.35;;;7.03;;
32734;SDS011;19112;51.076;3.706;2023-08-12T02:39:31;20.65;;;5.65;;
32734;SDS011;19112;51.076;3.706;2023-08-12T02:42:05;16.02;;;6.00;;
32734;SDS011;19112;51.076;3.706;2023-08-12T02:44:39;18.02;;;6.88;;
32734;SDS011;19112;51.076;3.706;2023-08-12T02:47:23;24.35;;;6.55;;
32734;SDS011;19112;51.076;3.706;2023-08-12T02:56:23;23.50;;;6.40;;
32734;SDS011;19112;51.076;3.706;2023-08-12T02:59:07;21.13;;;7.80;;
32734;SDS011;19112;51.076;3.706;2023-08-12T03:01:34;25.60;;;8.05;;
32734;SDS011;19112;51.076;3.706;2023-08-12T03:04:01;23.05;;;7.53;;
32734;SDS011;19112;51.076;3.706;2023-08-12T03:06:34;21.67;;;8.07;;
32734;SDS011;19112;51.076;3.706;2023-08-12T03:11:31;24.15;;;9.10;;
32734;SDS011;19112;51.076;3.706;2023-08-12T03:14:04;22.77;;;9.32;;
32734;SDS011;19112;51.076;3.706;2023-08-12T03:16:31;23.42;;;9.45;;
32734;SDS011;19112;51.076;3.706;2023-08-12T03:18:57;23.77;;;8.85;;
32734;SDS011;19112;51.076;3.706;2023-08-12T03:21:23;22.17;;;9.38;;
32734;SDS011;19112;51.076;3.706;2023-08-12T03:26:18;26.23;;;9.88;;
32734;SDS011;19112;51.076;3.706;2023-08-12T03:28:48;25.20;;;9.95;;
32734;SDS011;19112;51.076;3.706;2023-08-12T03:31:14;27.20;;;10.32;;
32734;SDS011;19112;51.076;3.706;2023-08-12T03:33:43;25.95;;;11.00;;
32734;SDS011;19112;51.076;3.706;2023-08-12T03:36:16;25.55;;;10.30;;
32734;SDS011;19112;51.076;3.706;2023-08-12T03:38:42;19.90;;;9.27;;
32734;SDS011;19112;51.076;3.706;2023-08-12T03:41:11;28.75;;;10.35;;
32734;SDS011;19112;51.076;3.706;2023-08-12T03:43:43;22.52;;;8.85;;
32734;SDS011;19112;51.076;3.706;2023-08-12T03:46:10;21.40;;;8.47;;
32734;SDS011;19112;51.076;3.706;2023-08-12T03:48:42;21.92;;;8.52;;
32734;SDS011;19112;51.076;3.706;2023-08-12T03:51:08;21.90;;;9.35;;
32734;SDS011;19112;51.076;3.706;2023-08-12T03:53:34;19.90;;;8.05;;
32734;SDS011;19112;51.076;3.706;2023-08-12T03:56:01;23.00;;;7.70;;
32734;SDS011;19112;51.076;3.706;2023-08-12T03:58:28;21.52;;;7.93;;
32734;SDS011;19112;51.076;3.706;2023-08-12T04:00:58;21.42;;;7.95;;
32734;SDS011;19112;51.076;3.706;2023-08-12T04:03:25;19.35;;;7.28;;
32734;SDS011;19112;51.076;3.706;2023-08-12T04:05:54;17.38;;;6.30;;
32734;SDS011;19112;51.076;3.706;2023-08-12T04:11:05;21.45;;;5.88;;
32734;SDS011;19112;51.076;3.706;2023-08-12T04:13:36;18.88;;;5.65;;
32734;SDS011;19112;51.076;3.706;2023-08-12T04:16:06;45.00;;;7.32;;
32734;SDS011;19112;51.076;3.706;2023-08-12T04:18:32;16.98;;;4.85;;
32734;SDS011;19112;51.076;3.706;2023-08-12T04:20:59;16.35;;;5.07;;
32734;SDS011;19112;51.076;3.706;2023-08-12T04:23:28;17.17;;;5.32;;
32734;SDS011;19112;51.076;3.706;2023-08-12T04:25:54;18.83;;;4.75;;
32734;SDS011;19112;51.076;3.706;2023-08-12T04:28:21;19.70;;;4.63;;
32734;SDS011;19112;51.076;3.706;2023-08-12T04:30:49;22.60;;;5.10;;
32734;SDS011;19112;51.076;3.706;2023-08-12T04:33:16;12.10;;;4.85;;
32734;SDS011;19112;51.076;3.706;2023-08-12T04:38:14;12.93;;;4.80;;
32734;SDS011;19112;51.076;3.706;2023-08-12T04:40:47;18.80;;;4.97;;
32734;SDS011;19112;51.076;3.706;2023-08-12T04:43:15;31.05;;;5.25;;
32734;SDS011;19112;51.076;3.706;2023-08-12T04:45:46;15.35;;;4.90;;
32734;SDS011;19112;51.076;3.706;2023-08-12T04:48:14;16.77;;;5.30;;
32734;SDS011;19112;51.076;3.706;2023-08-12T04:50:42;11.20;;;4.90;;
32734;SDS011;19112;51.076;3.706;2023-08-12T04:55:49;10.45;;;4.43;;
32734;SDS011;19112;51.076;3.706;2023-08-12T04:58:17;12.68;;;4.97;;
32734;SDS011;19112;51.076;3.706;2023-08-12T05:00:44;12.18;;;5.32;;
32734;SDS011;19112;51.076;3.706;2023-08-12T05:03:19;11.13;;;5.05;;
32734;SDS011;19112;51.076;3.706;2023-08-12T05:05:50;21.08;;;6.00;;
32734;SDS011;19112;51.076;3.706;2023-08-12T05:08:18;12.80;;;5.68;;
32734;SDS011;19112;51.076;3.706;2023-08-12T05:10:46;16.73;;;5.90;;
32734;SDS011;19112;51.076;3.706;2023-08-12T05:15:48;11.75;;;5.03;;
32734;SDS011;19112;51.076;3.706;2023-08-12T05:18:16;16.58;;;5.53;;
32734;SDS011;19112;51.076;3.706;2023-08-12T05:20:48;15.55;;;5.43;;
32734;SDS011;19112;51.076;3.706;2023-08-12T05:23:20;11.98;;;4.63;;
32734;SDS011;19112;51.076;3.706;2023-08-12T05:25:53;10.48;;;4.45;;
32734;SDS011;19112;51.076;3.706;2023-08-12T05:28:27;8.43;;;3.58;;
32734;SDS011;19112;51.076;3.706;2023-08-12T05:30:53;8.80;;;3.05;;
32734;SDS011;19112;51.076;3.706;2023-08-12T05:33:22;4.18;;;1.58;;
32734;SDS011;19112;51.076;3.706;2023-08-12T05:35:56;5.75;;;2.17;;
32734;SDS011;19112;51.076;3.706;2023-08-12T05:38:42;4.63;;;1.70;;
32734;SDS011;19112;51.076;3.706;2023-08-12T05:41:11;14.93;;;1.92;;
32734;SDS011;19112;51.076;3.706;2023-08-12T05:43:52;4.82;;;2.00;;
32734;SDS011;19112;51.076;3.706;2023-08-12T05:46:29;6.10;;;2.28;;
32734;SDS011;19112;51.076;3.706;2023-08-12T05:49:05;10.60;;;3.22;;
32734;SDS011;19112;51.076;3.706;2023-08-12T05:51:34;11.60;;;2.83;;
32734;SDS011;19112;51.076;3.706;2023-08-12T05:54:03;11.02;;;3.13;;
32734;SDS011;19112;51.076;3.706;2023-08-12T05:56:30;11.07;;;3.30;;
32734;SDS011;19112;51.076;3.706;2023-08-12T05:59:01;10.52;;;3.00;;
32734;SDS011;19112;51.076;3.706;2023-08-12T06:01:27;11.13;;;3.80;;
32734;SDS011;19112;51.076;3.706;2023-08-12T06:03:56;9.50;;;3.30;;
32734;SDS011;19112;51.076;3.706;2023-08-12T06:06:23;12.68;;;3.15;;
32734;SDS011;19112;51.076;3.706;2023-08-12T06:08:51;14.98;;;3.40;;
32734;SDS011;19112;51.076;3.706;2023-08-12T06:11:18;14.48;;;3.55;;
32734;SDS011;19112;51.076;3.706;2023-08-12T06:13:45;14.40;;;3.50;;
32734;SDS011;19112;51.076;3.706;2023-08-12T06:16:12;13.82;;;3.42;;
32734;SDS011;19112;51.076;3.706;2023-08-12T06:18:39;16.15;;;3.85;;
32734;SDS011;19112;51.076;3.706;2023-08-12T06:21:05;12.73;;;3.40;;
32734;SDS011;19112;51.076;3.706;2023-08-12T06:23:33;15.02;;;3.80;;
32734;SDS011;19112;51.076;3.706;2023-08-12T06:25:59;16.77;;;4.22;;
32734;SDS011;19112;51.076;3.706;2023-08-12T06:28:25;16.38;;;3.25;;
32734;SDS011;19112;51.076;3.706;2023-08-12T06:30:53;10.98;;;3.25;;
32734;SDS011;19112;51.076;3.706;2023-08-12T06:33:19;13.52;;;3.17;;
32734;SDS011;19112;51.076;3.706;2023-08-12T06:35:46;15.25;;;3.20;;
32734;SDS011;19112;51.076;3.706;2023-08-12T06:38:12;16.27;;;3.17;;
32734;SDS011;19112;51.076;3.706;2023-08-12T06:40:39;15.93;;;3.45;;
32734;SDS011;19112;51.076;3.706;2023-08-12T06:43:08;19.98;;;3.30;;
32734;SDS011;19112;51.076;3.706;2023-08-12T06:45:35;23.63;;;4.22;;
32734;SDS011;19112;51.076;3.706;2023-08-12T06:48:01;17.92;;;3.70;;
32734;SDS011;19112;51.076;3.706;2023-08-12T06:50:29;21.05;;;3.95;;
32734;SDS011;19112;51.076;3.706;2023-08-12T06:52:58;15.18;;;3.38;;
32734;SDS011;19112;51.076;3.706;2023-08-12T06:55:26;13.80;;;3.78;;
32734;SDS011;19112;51.076;3.706;2023-08-12T06:57:52;20.08;;;4.18;;
32734;SDS011;19112;51.076;3.706;2023-08-12T07:00:19;18.88;;;4.22;;
32734;SDS011;19112;51.076;3.706;2023-08-12T07:02:46;16.63;;;4.13;;
32734;SDS011;19112;51.076;3.706;2023-08-12T07:05:12;14.15;;;3.85;;
32734;SDS011;19112;51.076;3.706;2023-08-12T07:07:39;13.90;;;3.63;;
32734;SDS011;19112;51.076;3.706;2023-08-12T07:10:11;14.48;;;3.38;;
32734;SDS011;19112;51.076;3.706;2023-08-12T07:12:38;13.73;;;3.35;;
32734;SDS011;19112;51.076;3.706;2023-08-12T07:15:06;14.25;;;3.40;;
32734;SDS011;19112;51.076;3.706;2023-08-12T07:17:36;9.95;;;2.90;;
32734;SDS011;19112;51.076;3.706;2023-08-12T07:20:03;13.35;;;3.78;;
32734;SDS011;19112;51.076;3.706;2023-08-12T07:22:33;14.93;;;3.53;;
32734;SDS011;19112;51.076;3.706;2023-08-12T07:24:59;11.73;;;3.42;;
32734;SDS011;19112;51.076;3.706;2023-08-12T07:27:31;12.05;;;3.65;;
32734;SDS011;19112;51.076;3.706;2023-08-12T07:29:58;14.23;;;3.60;;
32734;SDS011;19112;51.076;3.706;2023-08-12T07:32:24;10.90;;;3.55;;
32734;SDS011;19112;51.076;3.706;2023-08-12T07:34:51;13.75;;;3.65;;
32734;SDS011;19112;51.076;3.706;2023-08-12T07:37:17;15.48;;;3.63;;
32734;SDS011;19112;51.076;3.706;2023-08-12T07:39:46;11.07;;;3.25;;
32734;SDS011;19112;51.076;3.706;2023-08-12T07:42:13;12.32;;;3.45;;
32734;SDS011;19112;51.076;3.706;2023-08-12T07:44:45;14.38;;;3.78;;
32734;SDS011;19112;51.076;3.706;2023-08-12T07:47:14;14.82;;;3.75;;
32734;SDS011;19112;51.076;3.706;2023-08-12T07:49:42;11.70;;;3.35;;
32734;SDS011;19112;51.076;3.706;2023-08-12T07:52:10;13.68;;;2.92;;
32734;SDS011;19112;51.076;3.706;2023-08-12T07:54:36;16.58;;;3.65;;
32734;SDS011;19112;51.076;3.706;2023-08-12T07:57:03;12.85;;;3.40;;
32734;SDS011;19112;51.076;3.706;2023-08-12T07:59:29;14.35;;;3.88;;
32734;SDS011;19112;51.076;3.706;2023-08-12T08:01:55;11.48;;;3.63;;
32734;SDS011;19112;51.076;3.706;2023-08-12T08:04:23;14.00;;;3.15;;
32734;SDS011;19112;51.076;3.706;2023-08-12T08:06:54;13.95;;;3.10;;
32734;SDS011;19112;51.076;3.706;2023-08-12T08:09:20;15.55;;;3.90;;
32734;SDS011;19112;51.076;3.706;2023-08-12T08:11:54;8.95;;;3.15;;
32734;SDS011;19112;51.076;3.706;2023-08-12T08:14:22;11.03;;;3.60;;
32734;SDS011;19112;51.076;3.706;2023-08-12T08:19:25;13.02;;;2.80;;
32734;SDS011;19112;51.076;3.706;2023-08-12T08:21:53;12.23;;;3.40;;
32734;SDS011;19112;51.076;3.706;2023-08-12T08:24:20;16.83;;;3.65;;
32734;SDS011;19112;51.076;3.706;2023-08-12T08:26:48;14.45;;;3.42;;
32734;SDS011;19112;51.076;3.706;2023-08-12T08:29:14;13.70;;;3.22;;
32734;SDS011;19112;51.076;3.706;2023-08-12T08:31:41;11.15;;;3.45;;
32734;SDS011;19112;51.076;3.706;2023-08-12T08:34:09;13.40;;;3.33;;
32734;SDS011;19112;51.076;3.706;2023-08-12T08:36:43;13.02;;;3.10;;
32734;SDS011;19112;51.076;3.706;2023-08-12T08:39:11;15.05;;;3.22;;
32734;SDS011;19112;51.076;3.706;2023-08-12T08:41:44;15.13;;;3.58;;
32734;SDS011;19112;51.076;3.706;2023-08-12T08:44:15;15.00;;;3.78;;
32734;SDS011;19112;51.076;3.706;2023-08-12T08:46:49;15.02;;;3.17;;
32734;SDS011;19112;51.076;3.706;2023-08-12T08:49:19;18.05;;;3.60;;
32734;SDS011;19112;51.076;3.706;2023-08-12T08:51:46;12.52;;;3.50;;
32734;SDS011;19112;51.076;3.706;2023-08-12T08:54:16;11.32;;;3.50;;
32734;SDS011;19112;51.076;3.706;2023-08-12T08:56:42;17.40;;;3.63;;
32734;SDS011;19112;51.076;3.706;2023-08-12T08:59:09;14.60;;;3.38;;
32734;SDS011;19112;51.076;3.706;2023-08-12T09:04:07;15.65;;;3.45;;
32734;SDS011;19112;51.076;3.706;2023-08-12T09:06:33;13.95;;;3.47;;
32734;SDS011;19112;51.076;3.706;2023-08-12T09:11:44;14.82;;;3.00;;
32734;SDS011;19112;51.076;3.706;2023-08-12T09:14:12;8.80;;;2.80;;
32734;SDS011;19112;51.076;3.706;2023-08-12T09:19:18;11.05;;;2.90;;
32734;SDS011;19112;51.076;3.706;2023-08-12T09:21:51;18.00;;;3.85;;
32734;SDS011;19112;51.076;3.706;2023-08-12T09:24:29;14.65;;;3.40;;
32734;SDS011;19112;51.076;3.706;2023-08-12T09:27:03;13.13;;;3.70;;
32734;SDS011;19112;51.076;3.706;2023-08-12T09:29:36;17.50;;;3.88;;
32734;SDS011;19112;51.076;3.706;2023-08-12T09:32:09;13.05;;;3.50;;
32734;SDS011;19112;51.076;3.706;2023-08-12T09:34:46;12.43;;;3.47;;
32734;SDS011;19112;51.076;3.706;2023-08-12T09:37:30;17.30;;;3.70;;
32734;SDS011;19112;51.076;3.706;2023-08-12T09:40:04;10.35;;;3.30;;
32734;SDS011;19112;51.076;3.706;2023-08-12T09:42:44;13.90;;;3.47;;
32734;SDS011;19112;51.076;3.706;2023-08-12T09:45:15;12.82;;;3.58;;
32734;SDS011;19112;51.076;3.706;2023-08-12T09:47:56;13.52;;;3.88;;
32734;SDS011;19112;51.076;3.706;2023-08-12T09:50:30;16.27;;;3.42;;
32734;SDS011;19112;51.076;3.706;2023-08-12T09:53:12;14.57;;;3.45;;
32734;SDS011;19112;51.076;3.706;2023-08-12T09:55:40;10.77;;;3.00;;
32734;SDS011;19112;51.076;3.706;2023-08-12T09:58:14;14.80;;;3.50;;
32734;SDS011;19112;51.076;3.706;2023-08-12T10:00:53;16.27;;;3.72;;
32734;SDS011;19112;51.076;3.706;2023-08-12T10:03:27;13.18;;;3.35;;
32734;SDS011;19112;51.076;3.706;2023-08-12T10:06:01;16.05;;;3.50;;
32734;SDS011;19112;51.076;3.706;2023-08-12T10:08:29;11.27;;;3.60;;
32734;SDS011;19112;51.076;3.706;2023-08-12T10:11:07;16.60;;;4.05;;
32734;SDS011;19112;51.076;3.706;2023-08-12T10:13:48;16.67;;;4.00;;
32734;SDS011;19112;51.076;3.706;2023-08-12T10:16:27;18.65;;;3.85;;
32734;SDS011;19112;51.076;3.706;2023-08-12T10:19:11;11.50;;;3.60;;
32734;SDS011;19112;51.076;3.706;2023-08-12T10:24:36;17.40;;;4.40;;
32734;SDS011;19112;51.076;3.706;2023-08-12T10:27:17;11.43;;;3.35;;
32734;SDS011;19112;51.076;3.706;2023-08-12T10:30:05;10.48;;;3.15;;
32734;SDS011;19112;51.076;3.706;2023-08-12T10:32:39;12.55;;;3.10;;
32734;SDS011;19112;51.076;3.706;2023-08-12T10:35:13;11.25;;;3.30;;
32734;SDS011;19112;51.076;3.706;2023-08-12T10:38:19;12.13;;;2.88;;
32734;SDS011;19112;51.076;3.706;2023-08-12T10:41:49;16.85;;;4.00;;
32734;SDS011;19112;51.076;3.706;2023-08-12T10:47:43;15.48;;;3.50;;
32734;SDS011;19112;51.076;3.706;2023-08-12T10:51:16;15.50;;;3.28;;
32734;SDS011;19112;51.076;3.706;2023-08-12T10:54:30;17.45;;;3.72;;
32734;SDS011;19112;51.076;3.706;2023-08-12T11:00:45;14.85;;;3.88;;
32734;SDS011;19112;51.076;3.706;2023-08-12T11:03:32;16.67;;;3.55;;
32734;SDS011;19112;51.076;3.706;2023-08-12T11:06:14;12.48;;;3.22;;
32734;SDS011;19112;51.076;3.706;2023-08-12T11:08:48;12.98;;;3.63;;
32734;SDS011;19112;51.076;3.706;2023-08-12T11:11:59;14.40;;;3.70;;
32734;SDS011;19112;51.076;3.706;2023-08-12T11:14:51;15.02;;;4.07;;
32734;SDS011;19112;51.076;3.706;2023-08-12T11:20:59;15.60;;;4.47;;
32734;SDS011;19112;51.076;3.706;2023-08-12T11:35:13;12.70;;;3.27;;
32734;SDS011;19112;51.076;3.706;2023-08-12T11:38:43;14.13;;;2.72;;
32734;SDS011;19112;51.076;3.706;2023-08-12T11:45:24;14.15;;;2.83;;
32734;SDS011;19112;51.076;3.706;2023-08-12T11:48:45;10.30;;;2.58;;
32734;SDS011;19112;51.076;3.706;2023-08-12T11:56:43;15.55;;;2.50;;
32734;SDS011;19112;51.076;3.706;2023-08-12T12:15:48;16.63;;;3.00;;
32734;SDS011;19112;51.076;3.706;2023-08-12T12:54:36;14.95;;;3.13;;
32734;SDS011;19112;51.076;3.706;2023-08-12T15:20:39;10.77;;;2.60;;
32734;SDS011;19112;51.076;3.706;2023-08-12T15:27:43;7.65;;;2.25;;
32734;SDS011;19112;51.076;3.706;2023-08-12T15:30:09;9.07;;;2.38;;
32734;SDS011;19112;51.076;3.706;2023-08-12T15:32:36;10.52;;;2.50;;
32734;SDS011;19112;51.076;3.706;2023-08-12T15:35:02;10.63;;;2.85;;
32734;SDS011;19112;51.076;3.706;2023-08-12T15:37:28;14.15;;;2.70;;
32734;SDS011;19112;51.076;3.706;2023-08-12T15:39:54;11.10;;;2.83;;
32734;SDS011;19112;51.076;3.706;2023-08-12T15:42:20;9.27;;;2.33;;
32734;SDS011;19112;51.076;3.706;2023-08-12T15:44:45;8.43;;;2.20;;
32734;SDS011;19112;51.076;3.706;2023-08-12T15:47:11;13.10;;;2.78;;
32734;SDS011;19112;51.076;3.706;2023-08-12T15:49:37;10.38;;;2.13;;
32734;SDS011;19112;51.076;3.706;2023-08-12T15:52:03;13.02;;;2.90;;
32734;SDS011;19112;51.076;3.706;2023-08-12T15:54:29;9.80;;;2.17;;
32734;SDS011;19112;51.076;3.706;2023-08-12T15:56:55;11.20;;;2.30;;
32734;SDS011;19112;51.076;3.706;2023-08-12T15:59:21;11.60;;;2.28;;
32734;SDS011;19112;51.076;3.706;2023-08-12T16:01:47;13.88;;;2.65;;
32734;SDS011;19112;51.076;3.706;2023-08-12T16:04:13;14.40;;;2.33;;
32734;SDS011;19112;51.076;3.706;2023-08-12T16:06:39;9.75;;;2.88;;
32734;SDS011;19112;51.076;3.706;2023-08-12T16:09:05;11.88;;;2.10;;
32734;SDS011;19112;51.076;3.706;2023-08-12T16:11:30;10.02;;;2.20;;
32734;SDS011;19112;51.076;3.706;2023-08-12T16:13:56;12.35;;;2.42;;
32734;SDS011;19112;51.076;3.706;2023-08-12T16:16:22;11.10;;;2.65;;
32734;SDS011;19112;51.076;3.706;2023-08-12T16:18:48;7.13;;;1.67;;
32734;SDS011;19112;51.076;3.706;2023-08-12T16:21:14;10.05;;;2.40;;
32734;SDS011;19112;51.076;3.706;2023-08-12T16:23:40;11.00;;;2.20;;
32734;SDS011;19112;51.076;3.706;2023-08-12T16:26:05;11.38;;;2.45;;
32734;SDS011;19112;51.076;3.706;2023-08-12T16:28:32;11.77;;;2.75;;
32734;SDS011;19112;51.076;3.706;2023-08-12T16:30:57;12.63;;;2.30;;
32734;SDS011;19112;51.076;3.706;2023-08-12T16:33:23;13.75;;;2.45;;
32734;SDS011;19112;51.076;3.706;2023-08-12T16:35:49;10.23;;;2.50;;
32734;SDS011;19112;51.076;3.706;2023-08-12T16:38:16;14.10;;;2.60;;
32734;SDS011;19112;51.076;3.706;2023-08-12T16:40:42;12.65;;;2.63;;
32734;SDS011;19112;51.076;3.706;2023-08-12T16:43:07;11.68;;;2.67;;
32734;SDS011;19112;51.076;3.706;2023-08-12T16:45:33;10.23;;;2.47;;
32734;SDS011;19112;51.076;3.706;2023-08-12T16:47:59;12.07;;;2.60;;
32734;SDS011;19112;51.076;3.706;2023-08-12T16:50:25;8.70;;;2.42;;
32734;SDS011;19112;51.076;3.706;2023-08-12T16:52:51;15.60;;;2.83;;
32734;SDS011;19112;51.076;3.706;2023-08-12T16:55:17;9.20;;;2.10;;
32734;SDS011;19112;51.076;3.706;2023-08-12T16:57:43;10.25;;;2.40;;
32734;SDS011;19112;51.076;3.706;2023-08-12T17:00:09;14.27;;;2.70;;
32734;SDS011;19112;51.076;3.706;2023-08-12T17:02:36;12.15;;;2.80;;
32734;SDS011;19112;51.076;3.706;2023-08-12T17:05:02;15.40;;;2.85;;
32734;SDS011;19112;51.076;3.706;2023-08-12T17:07:28;12.77;;;2.35;;
32734;SDS011;19112;51.076;3.706;2023-08-12T17:09:55;12.57;;;2.72;;
32734;SDS011;19112;51.076;3.706;2023-08-12T17:12:21;14.82;;;2.90;;
32734;SDS011;19112;51.076;3.706;2023-08-12T17:14:47;16.25;;;3.28;;
32734;SDS011;19112;51.076;3.706;2023-08-12T19:21:07;14.55;;;3.50;;
32734;SDS011;19112;51.076;3.706;2023-08-12T19:27:25;17.15;;;2.88;;
32734;SDS011;19112;51.076;3.706;2023-08-12T19:30:48;18.85;;;3.00;;
32734;SDS011;19112;51.076;3.706;2023-08-12T19:33:33;15.10;;;2.97;;
32734;SDS011;19112;51.076;3.706;2023-08-12T19:36:22;13.70;;;2.90;;
32734;SDS011;19112;51.076;3.706;2023-08-12T19:39:08;13.05;;;2.65;;
32734;SDS011;19112;51.076;3.706;2023-08-12T19:42:05;15.13;;;2.90;;
32734;SDS011;19112;51.076;3.706;2023-08-12T19:44:40;15.77;;;2.75;;
32734;SDS011;19112;51.076;3.706;2023-08-12T19:47:26;12.80;;;2.80;;
32734;SDS011;19112;51.076;3.706;2023-08-12T19:50:07;12.77;;;2.60;;
32734;SDS011;19112;51.076;3.706;2023-08-12T19:53:27;17.25;;;3.50;;
32734;SDS011;19112;51.076;3.706;2023-08-12T19:56:09;16.20;;;2.55;;
32734;SDS011;19112;51.076;3.706;2023-08-12T19:58:44;10.88;;;2.38;;
32734;SDS011;19112;51.076;3.706;2023-08-12T20:01:25;10.38;;;2.50;;
32734;SDS011;19112;51.076;3.706;2023-08-12T20:04:24;13.82;;;2.95;;
32734;SDS011;19112;51.076;3.706;2023-08-12T20:06:56;11.75;;;2.45;;
32734;SDS011;19112;51.076;3.706;2023-08-12T20:18:31;11.35;;;2.63;;
32734;SDS011;19112;51.076;3.706;2023-08-12T20:21:00;14.73;;;3.42;;
32734;SDS011;19112;51.076;3.706;2023-08-12T20:23:34;16.67;;;3.80;;
32734;SDS011;19112;51.076;3.706;2023-08-12T20:26:11;19.05;;;3.90;;
32734;SDS011;19112;51.076;3.706;2023-08-12T20:28:41;16.00;;;3.60;;
32734;SDS011;19112;51.076;3.706;2023-08-12T20:31:17;17.98;;;3.30;;
32734;SDS011;19112;51.076;3.706;2023-08-12T20:34:06;23.65;;;4.25;;
32734;SDS011;19112;51.076;3.706;2023-08-12T20:39:21;19.83;;;4.03;;
32734;SDS011;19112;51.076;3.706;2023-08-12T20:41:58;17.50;;;3.30;;
32734;SDS011;19112;51.076;3.706;2023-08-12T20:44:29;17.67;;;4.10;;
32734;SDS011;19112;51.076;3.706;2023-08-12T20:47:14;20.17;;;3.42;;
32734;SDS011;19112;51.076;3.706;2023-08-12T20:50:06;17.85;;;3.45;;
32734;SDS011;19112;51.076;3.706;2023-08-12T20:52:40;18.00;;;3.67;;
32734;SDS011;19112;51.076;3.706;2023-08-12T20:55:14;17.25;;;3.42;;
32734;SDS011;19112;51.076;3.706;2023-08-12T20:57:57;22.35;;;3.67;;
32734;SDS011;19112;51.076;3.706;2023-08-12T21:00:27;18.33;;;4.05;;
32734;SDS011;19112;51.076;3.706;2023-08-12T21:03:35;13.27;;;3.03;;
32734;SDS011;19112;51.076;3.706;2023-08-12T21:09:03;16.83;;;3.63;;
32734;SDS011;19112;51.076;3.706;2023-08-12T21:11:50;19.95;;;3.88;;
32734;SDS011;19112;51.076;3.706;2023-08-12T21:18:14;20.50;;;4.10;;
32734;SDS011;19112;51.076;3.706;2023-08-12T21:21:12;21.38;;;4.45;;
32734;SDS011;19112;51.076;3.706;2023-08-12T21:30:41;20.75;;;4.10;;
32734;SDS011;19112;51.076;3.706;2023-08-12T21:33:14;19.02;;;3.40;;
32734;SDS011;19112;51.076;3.706;2023-08-12T21:35:51;15.20;;;3.13;;
32734;SDS011;19112;51.076;3.706;2023-08-12T21:38:44;16.65;;;3.40;;
32734;SDS011;19112;51.076;3.706;2023-08-12T21:48:05;19.08;;;3.42;;
32734;SDS011;19112;51.076;3.706;2023-08-12T21:57:50;16.90;;;4.13;;
32734;SDS011;19112;51.076;3.706;2023-08-12T22:15:22;17.65;;;3.58;;
32734;SDS011;19112;51.076;3.706;2023-08-12T22:17:51;17.50;;;3.53;;
32734;SDS011;19112;51.076;3.706;2023-08-12T22:49:12;18.23;;;4.40;;
32734;SDS011;19112;51.076;3.706;2023-08-12T22:53:39;13.63;;;3.13;;
32734;SDS011;19112;51.076;3.706;2023-08-12T22:56:59;19.15;;;4.00;;
32734;SDS011;19112;51.076;3.706;2023-08-12T23:09:00;15.07;;;3.75;;
32734;SDS011;19112;51.076;3.706;2023-08-12T23:19:43;16.77;;;4.03;;
32734;SDS011;19112;51.076;3.706;2023-08-12T23:30:48;20.02;;;3.63;;
32734;SDS011;19112;51.076;3.706;2023-08-12T23:37:31;16.95;;;3.50;;
32734;SDS011;19112;51.076;3.706;2023-08-12T23:44:04;15.70;;;3.28;;
